createdAt,value
2023-04-18T00:00:10.936Z,97.19
2023-04-18T00:03:15.965Z,97.26
2023-04-18T00:06:19.473Z,97.96
2023-04-18T00:09:22.232Z,98.16
2023-04-18T00:12:25.022Z,98.12
2023-04-18T00:15:29.365Z,98.16
2023-04-18T00:18:32.103Z,98.05
2023-04-18T00:21:35.326Z,98.54
2023-04-18T00:24:38.161Z,98.42
2023-04-18T00:27:41.746Z,98.04
2023-04-18T00:30:44.508Z,98.39
2023-04-18T00:33:47.185Z,98.56
2023-04-18T00:36:49.861Z,98.66
2023-04-18T00:39:54.067Z,98.95
2023-04-18T00:42:56.777Z,98.90
2023-04-18T00:46:01.680Z,99.04
2023-04-18T00:49:04.699Z,99.23
2023-04-18T00:52:07.435Z,100.00
2023-04-18T00:55:10.669Z,99.71
2023-04-18T00:58:13.461Z,99.32
2023-04-18T01:01:16.397Z,99.98
2023-04-18T01:04:19.160Z,100.00
2023-04-18T01:07:22.374Z,99.89
2023-04-18T01:10:25.633Z,99.95
2023-04-18T01:13:28.285Z,100.00
2023-04-18T01:16:34.570Z,100.00
2023-04-18T01:19:40.539Z,100.00
2023-04-18T01:22:43.313Z,100.00
2023-04-18T01:25:47.084Z,100.00
2023-04-18T01:28:49.827Z,100.00
2023-04-18T01:31:52.656Z,100.00
2023-04-18T01:34:55.269Z,100.00
2023-04-18T01:37:58.554Z,100.00
2023-04-18T01:41:02.577Z,100.00
2023-04-18T01:44:05.836Z,100.00
2023-04-18T01:47:08.470Z,100.00
2023-04-18T01:50:11.356Z,100.00
2023-04-18T01:53:13.987Z,100.00
2023-04-18T01:56:16.839Z,100.00
2023-04-18T01:59:19.603Z,100.00
2023-04-18T02:02:22.512Z,100.00
2023-04-18T02:05:27.241Z,100.00
2023-04-18T02:08:31.041Z,100.00
2023-04-18T02:11:33.697Z,100.00
2023-04-18T02:14:36.731Z,100.00
2023-04-18T02:17:39.524Z,100.00
2023-04-18T02:20:42.256Z,100.00
2023-04-18T02:23:45.307Z,100.00
2023-04-18T02:26:48.073Z,100.00
2023-04-18T02:29:50.993Z,100.00
2023-04-18T02:32:54.919Z,100.00
2023-04-18T02:35:57.566Z,100.00
2023-04-18T02:39:00.860Z,100.00
2023-04-18T02:42:03.823Z,100.00
2023-04-18T02:45:07.818Z,100.00
2023-04-18T02:48:10.607Z,100.00
2023-04-18T02:51:13.519Z,100.00
2023-04-18T02:54:16.614Z,100.00
2023-04-18T02:57:19.511Z,100.00
2023-04-18T03:00:22.173Z,100.00
2023-04-18T03:03:24.962Z,100.00
2023-04-18T03:06:27.739Z,100.00
2023-04-18T03:09:30.662Z,100.00
2023-04-18T03:12:33.530Z,100.00
2023-04-18T03:15:36.263Z,100.00
2023-04-18T03:18:38.852Z,100.00
2023-04-18T03:21:41.723Z,100.00
2023-04-18T03:24:44.561Z,100.00
2023-04-18T03:27:47.349Z,100.00
2023-04-18T03:30:50.856Z,100.00
2023-04-18T03:33:53.859Z,100.00
2023-04-18T03:36:56.651Z,100.00
2023-04-18T03:39:59.308Z,100.00
2023-04-18T03:43:02.192Z,100.00
2023-04-18T03:46:04.939Z,100.00
2023-04-18T03:49:07.799Z,100.00
2023-04-18T03:52:10.842Z,100.00
2023-04-18T03:55:13.653Z,100.00
2023-04-18T03:58:16.470Z,100.00
2023-04-18T04:01:19.130Z,100.00
2023-04-18T04:04:21.902Z,100.00
2023-04-18T04:07:24.639Z,100.00
2023-04-18T04:10:27.369Z,100.00
2023-04-18T04:13:30.026Z,100.00
2023-04-18T04:16:32.762Z,100.00
2023-04-18T04:19:35.591Z,100.00
2023-04-18T04:22:38.291Z,100.00
2023-04-18T04:25:41.005Z,100.00
2023-04-18T04:28:46.727Z,100.00
2023-04-18T04:31:49.599Z,100.00
2023-04-18T04:34:52.440Z,100.00
2023-04-18T04:37:55.240Z,100.00
2023-04-18T04:40:58.479Z,100.00
2023-04-18T04:44:02.015Z,100.00
2023-04-18T04:47:05.038Z,100.00
2023-04-18T04:50:13.436Z,100.00
2023-04-18T04:53:16.158Z,100.00
2023-04-18T04:56:18.821Z,100.00
2023-04-18T04:59:21.456Z,100.00
2023-04-18T05:02:24.426Z,100.00
2023-04-18T05:05:28.615Z,100.00
2023-04-18T05:08:31.523Z,100.00
2023-04-18T05:11:34.761Z,100.00
2023-04-18T05:14:37.465Z,100.00
2023-04-18T05:17:40.248Z,100.00
2023-04-18T05:20:42.942Z,100.00
2023-04-18T05:23:46.579Z,100.00
2023-04-18T05:26:49.454Z,100.00
2023-04-18T05:29:52.835Z,100.00
2023-04-18T05:32:55.764Z,100.00
2023-04-18T05:35:58.912Z,100.00
2023-04-18T05:39:02.036Z,100.00
2023-04-18T05:42:05.004Z,100.00
2023-04-18T05:45:08.412Z,100.00
2023-04-18T05:48:11.268Z,100.00
2023-04-18T05:51:13.960Z,100.00
2023-04-18T05:54:17.233Z,100.00
2023-04-18T05:57:20.165Z,100.00
2023-04-18T06:00:23.061Z,100.00
2023-04-18T06:03:26.089Z,100.00
2023-04-18T06:06:29.073Z,100.00
2023-04-18T06:09:31.611Z,100.00
2023-04-18T06:12:34.313Z,100.00
2023-04-18T06:15:37.050Z,100.00
2023-04-18T06:18:39.852Z,100.00
2023-04-18T06:21:42.996Z,100.00
2023-04-18T06:24:45.608Z,100.00
2023-04-18T06:27:48.301Z,100.00
2023-04-18T06:30:51.245Z,100.00
2023-04-18T06:33:54.000Z,100.00
2023-04-18T06:36:56.699Z,100.00
2023-04-18T06:39:59.412Z,100.00
2023-04-18T06:43:02.094Z,100.00
2023-04-18T06:46:05.517Z,100.00
2023-04-18T06:49:08.377Z,100.00
2023-04-18T06:52:11.398Z,100.00
2023-04-18T06:55:14.449Z,100.00
2023-04-18T06:58:17.386Z,100.00
2023-04-18T07:01:20.233Z,100.00
2023-04-18T07:04:23.206Z,100.00
2023-04-18T07:07:26.640Z,100.00
2023-04-18T07:10:29.959Z,100.00
2023-04-18T07:13:32.743Z,100.00
2023-04-18T07:16:35.606Z,100.00
2023-04-18T07:19:38.722Z,100.00
2023-04-18T07:22:41.719Z,100.00
2023-04-18T07:25:44.565Z,100.00
2023-04-18T07:28:47.412Z,100.00
2023-04-18T07:31:50.154Z,100.00
2023-04-18T07:34:53.053Z,100.00
2023-04-18T07:37:55.830Z,100.00
2023-04-18T07:40:59.713Z,100.00
2023-04-18T07:44:02.869Z,100.00
2023-04-18T07:47:10.300Z,100.00
2023-04-18T07:50:13.115Z,100.00
2023-04-18T07:53:15.868Z,100.00
2023-04-18T07:56:19.017Z,100.00
2023-04-18T07:59:21.826Z,100.00
2023-04-18T08:02:24.686Z,100.00
2023-04-18T08:05:27.901Z,100.00
2023-04-18T08:08:30.663Z,100.00
2023-04-18T08:11:34.017Z,100.00
2023-04-18T08:14:36.664Z,100.00
2023-04-18T08:17:39.446Z,100.00
2023-04-18T08:20:42.277Z,100.00
2023-04-18T08:23:45.179Z,100.00
2023-04-18T08:26:47.915Z,100.00
2023-04-18T08:29:50.666Z,100.00
2023-04-18T08:32:53.409Z,100.00
2023-04-18T08:35:56.341Z,100.00
2023-04-18T08:38:59.454Z,100.00
2023-04-18T08:42:03.415Z,100.00
2023-04-18T08:45:07.155Z,100.00
2023-04-18T08:48:14.250Z,100.00
2023-04-18T08:51:16.904Z,100.00
2023-04-18T08:54:21.084Z,100.00
2023-04-18T08:57:26.995Z,100.00
2023-04-18T09:00:30.666Z,100.00
2023-04-18T09:03:43.407Z,100.00
2023-04-18T09:06:55.488Z,100.00
2023-04-18T09:09:58.390Z,100.00
2023-04-18T09:13:05.772Z,100.00
2023-04-18T09:16:08.966Z,100.00
2023-04-18T09:19:19.153Z,100.00
2023-04-18T09:22:22.138Z,100.00
2023-04-18T09:25:29.610Z,100.00
2023-04-18T09:28:33.634Z,100.00
2023-04-18T09:31:55.228Z,100.00
2023-04-18T09:35:04.776Z,100.00
2023-04-18T09:38:08.197Z,100.00
2023-04-18T09:41:12.160Z,100.00
2023-04-18T09:44:17.390Z,100.00
2023-04-18T09:47:20.417Z,100.00
2023-04-18T09:50:23.327Z,100.00
2023-04-18T09:53:26.233Z,100.00
2023-04-18T09:56:32.123Z,100.00
2023-04-18T10:00:03.995Z,100.00
2023-04-18T10:03:10.884Z,100.00
2023-04-18T10:06:16.717Z,100.00
2023-04-18T10:09:20.017Z,100.00
2023-04-18T10:12:23.048Z,100.00
2023-04-18T10:15:28.132Z,100.00
2023-04-18T10:18:31.181Z,100.00
2023-04-18T10:21:34.638Z,100.00
2023-04-18T10:24:53.811Z,100.00
2023-04-18T10:27:58.566Z,100.00
2023-04-18T10:31:05.863Z,100.00
2023-04-18T10:34:08.685Z,100.00
2023-04-18T10:37:13.277Z,100.00
2023-04-18T10:40:16.239Z,100.00
2023-04-18T10:43:19.014Z,100.00
2023-04-18T10:46:31.665Z,100.00
2023-04-18T10:49:38.615Z,99.49
2023-04-18T10:52:42.836Z,100.00
2023-04-18T10:55:52.727Z,97.46
2023-04-18T10:58:56.361Z,98.19
2023-04-18T11:02:11.296Z,94.61
2023-04-18T11:05:19.522Z,96.32
2023-04-18T11:08:24.870Z,95.25
2023-04-18T11:11:27.560Z,91.74
2023-04-18T11:15:01.461Z,92.36
2023-04-18T11:18:05.082Z,88.28
2023-04-18T11:21:08.113Z,90.02
2023-04-18T11:24:11.203Z,90.81
2023-04-18T11:27:14.406Z,88.91
2023-04-18T11:30:17.670Z,92.30
2023-04-18T11:33:20.581Z,87.01
2023-04-18T11:36:23.435Z,89.24
2023-04-18T11:39:26.216Z,89.71
2023-04-18T11:42:29.185Z,88.82
2023-04-18T11:45:32.225Z,86.60
2023-04-18T11:48:39.186Z,86.67
2023-04-18T11:51:46.396Z,83.98
2023-04-18T11:54:49.109Z,84.50
2023-04-18T11:57:53.726Z,84.81
2023-04-18T12:00:56.467Z,83.18
2023-04-18T12:04:07.808Z,77.90
2023-04-18T12:07:10.829Z,75.24
2023-04-18T12:10:19.982Z,72.40
2023-04-18T12:13:31.214Z,71.78
2023-04-18T12:16:34.030Z,73.20
2023-04-18T12:19:37.471Z,73.83
2023-04-18T12:22:49.714Z,73.59
2023-04-18T12:26:07.616Z,73.59
2023-04-18T12:29:10.406Z,74.32
2023-04-18T12:32:13.159Z,75.50
2023-04-18T12:35:17.138Z,73.02
2023-04-18T12:38:22.801Z,69.68
2023-04-18T12:41:25.673Z,70.07
2023-04-18T12:44:28.401Z,70.25
2023-04-18T12:47:31.797Z,73.07
2023-04-18T12:50:35.042Z,73.43
2023-04-18T12:53:37.887Z,73.88
2023-04-18T12:56:40.952Z,73.85
2023-04-18T12:59:43.679Z,74.14
2023-04-18T13:02:46.659Z,74.58
2023-04-18T13:05:49.810Z,74.97
2023-04-18T13:08:52.563Z,74.47
2023-04-18T13:11:55.423Z,74.11
2023-04-18T13:14:58.211Z,73.93
2023-04-18T13:18:05.153Z,73.64
2023-04-18T13:21:08.456Z,71.83
2023-04-18T13:24:11.233Z,73.80
2023-04-18T13:27:14.922Z,74.12
2023-04-18T13:30:17.694Z,74.50
2023-04-18T13:33:20.490Z,73.10
2023-04-18T13:36:24.349Z,74.10
2023-04-18T13:39:28.185Z,72.03
2023-04-18T13:42:30.853Z,72.58
2023-04-18T13:45:33.525Z,71.50
2023-04-18T13:48:36.390Z,71.64
2023-04-18T13:51:39.447Z,72.73
2023-04-18T13:54:42.155Z,74.86
2023-04-18T13:57:44.875Z,76.48
2023-04-18T14:00:47.499Z,77.88
2023-04-18T14:03:50.384Z,77.55
2023-04-18T14:06:53.165Z,78.64
2023-04-18T14:09:55.900Z,78.26
2023-04-18T14:12:58.573Z,77.95
2023-04-18T14:16:01.505Z,78.27
2023-04-18T14:19:04.389Z,78.28
2023-04-18T14:22:08.134Z,75.68
2023-04-18T14:25:10.762Z,75.74
2023-04-18T14:28:13.434Z,75.14
2023-04-18T14:31:16.696Z,73.79
2023-04-18T14:34:19.587Z,70.91
2023-04-18T14:37:22.442Z,68.72
2023-04-18T14:40:25.282Z,69.20
2023-04-18T14:43:28.236Z,64.96
2023-04-18T14:46:31.192Z,64.45
2023-04-18T14:49:34.114Z,65.52
2023-04-18T14:52:36.852Z,68.32
2023-04-18T14:55:39.589Z,68.06
2023-04-18T14:58:43.054Z,68.74
2023-04-18T15:01:45.905Z,69.25
2023-04-18T15:04:48.967Z,69.07
2023-04-18T15:07:52.292Z,68.92
2023-04-18T15:10:55.050Z,69.89
2023-04-18T15:13:57.742Z,68.74
2023-04-18T15:17:00.668Z,69.82
2023-04-18T15:20:06.359Z,70.30
2023-04-18T15:23:11.883Z,69.88
2023-04-18T15:26:14.522Z,70.53
2023-04-18T15:29:17.215Z,72.23
2023-04-18T15:32:21.267Z,73.26
2023-04-18T15:35:24.449Z,74.21
2023-04-18T15:38:27.323Z,74.95
2023-04-18T15:41:30.548Z,76.12
2023-04-18T15:44:33.383Z,77.19
2023-04-18T15:47:36.350Z,77.57
2023-04-18T15:50:39.229Z,77.68
2023-04-18T15:53:41.864Z,76.73
2023-04-18T15:56:44.969Z,76.14
2023-04-18T15:59:47.963Z,75.08
2023-04-18T16:02:50.789Z,74.16
2023-04-18T16:05:53.500Z,74.41
2023-04-18T16:08:56.279Z,74.67
2023-04-18T16:11:59.074Z,73.87
2023-04-18T16:15:01.785Z,74.52
2023-04-18T16:18:05.788Z,75.79
2023-04-18T16:21:08.534Z,75.12
2023-04-18T16:24:11.718Z,74.84
2023-04-18T16:27:14.474Z,74.94
2023-04-18T16:30:17.162Z,75.22
2023-04-18T16:33:24.750Z,75.38
2023-04-18T16:36:27.538Z,76.55
2023-04-18T16:39:31.316Z,75.54
2023-04-18T16:42:34.305Z,75.22
2023-04-18T16:45:37.013Z,76.35
2023-04-18T16:48:41.882Z,75.77
2023-04-18T16:51:44.618Z,76.19
2023-04-18T16:54:50.134Z,76.61
2023-04-18T16:57:54.686Z,77.98
2023-04-18T17:00:57.793Z,78.00
2023-04-18T17:04:00.699Z,78.80
2023-04-18T17:07:03.605Z,78.24
2023-04-18T17:10:08.796Z,77.67
2023-04-18T17:13:12.988Z,78.88
2023-04-18T17:16:18.889Z,80.35
2023-04-18T17:19:23.260Z,81.48
2023-04-18T17:22:29.644Z,82.96
2023-04-18T17:25:32.667Z,84.83
2023-04-18T17:28:36.406Z,83.66
2023-04-18T17:31:40.019Z,84.13
2023-04-18T17:34:47.016Z,86.64
2023-04-18T17:37:53.191Z,88.78
2023-04-18T17:41:01.671Z,99.36
2023-04-18T17:44:08.570Z,96.95
2023-04-18T17:47:11.661Z,98.71
2023-04-18T17:50:14.699Z,100.00
2023-04-18T17:53:19.099Z,100.00
2023-04-18T17:56:22.794Z,100.00
2023-04-18T17:59:28.564Z,100.00
2023-04-18T18:02:31.705Z,100.00
2023-04-18T18:05:34.817Z,100.00
2023-04-18T18:08:38.386Z,100.00
2023-04-18T18:11:55.806Z,99.95
2023-04-18T18:15:05.178Z,100.00
2023-04-18T18:18:09.646Z,100.00
2023-04-18T18:21:14.868Z,100.00
2023-04-18T18:24:19.518Z,100.00
2023-04-18T18:27:23.153Z,100.00
2023-04-18T18:30:28.590Z,100.00
2023-04-18T18:33:36.669Z,100.00
2023-04-18T18:36:40.469Z,100.00
2023-04-18T18:39:44.452Z,100.00
2023-04-18T18:42:51.503Z,100.00
2023-04-18T18:45:54.763Z,100.00
2023-04-18T18:49:01.197Z,100.00
2023-04-18T18:52:05.664Z,100.00
2023-04-18T18:55:10.001Z,100.00
2023-04-18T18:58:13.395Z,100.00
2023-04-18T19:01:16.518Z,100.00
2023-04-18T19:04:21.246Z,100.00
2023-04-18T19:07:24.979Z,100.00
2023-04-18T19:10:28.800Z,100.00
2023-04-18T19:13:33.113Z,100.00
2023-04-18T19:16:37.919Z,100.00
2023-04-18T19:19:42.240Z,100.00
2023-04-18T19:22:45.631Z,100.00
2023-04-18T19:25:49.071Z,100.00
2023-04-18T19:28:53.029Z,100.00
2023-04-18T19:31:56.666Z,100.00
2023-04-18T19:35:00.314Z,100.00
2023-04-18T19:38:03.476Z,100.00
2023-04-18T19:41:06.535Z,100.00
2023-04-18T19:44:12.607Z,100.00
2023-04-18T19:47:15.829Z,100.00
2023-04-18T19:50:18.960Z,100.00
2023-04-18T19:53:23.653Z,100.00
2023-04-18T19:56:27.156Z,100.00
2023-04-18T19:59:30.136Z,100.00
2023-04-18T20:02:33.343Z,100.00
2023-04-18T20:05:36.951Z,100.00
2023-04-18T20:08:41.750Z,100.00
2023-04-18T20:11:45.034Z,100.00
2023-04-18T20:14:48.032Z,100.00
2023-04-18T20:17:51.249Z,100.00
2023-04-18T20:20:54.294Z,100.00
2023-04-18T20:24:00.471Z,100.00
2023-04-18T20:27:03.250Z,100.00
2023-04-18T20:30:06.962Z,100.00
2023-04-18T20:33:09.960Z,100.00
2023-04-18T20:36:14.272Z,100.00
2023-04-18T20:39:17.795Z,100.00
2023-04-18T20:42:21.233Z,100.00
2023-04-18T20:45:25.006Z,100.00
2023-04-18T20:48:28.457Z,100.00
2023-04-18T20:51:32.107Z,100.00
2023-04-18T20:54:34.839Z,100.00
2023-04-18T20:57:37.582Z,100.00
2023-04-18T21:00:41.620Z,100.00
2023-04-18T21:03:44.873Z,100.00
2023-04-18T21:06:47.988Z,100.00
2023-04-18T21:09:50.893Z,100.00
2023-04-18T21:12:53.641Z,100.00
2023-04-18T21:15:59.333Z,100.00
2023-04-18T21:19:02.230Z,100.00
2023-04-18T21:22:05.105Z,100.00
2023-04-18T21:25:08.199Z,100.00
2023-04-18T21:28:12.406Z,100.00
2023-04-18T21:31:15.296Z,100.00
2023-04-18T21:34:18.134Z,100.00
2023-04-18T21:37:20.803Z,100.00
2023-04-18T21:40:24.481Z,100.00
2023-04-18T21:43:27.257Z,100.00
2023-04-18T21:46:29.931Z,100.00
2023-04-18T21:49:32.983Z,100.00
2023-04-18T21:52:36.006Z,100.00
2023-04-18T21:55:38.709Z,100.00
2023-04-18T21:58:41.328Z,100.00
2023-04-18T22:01:47.154Z,100.00
2023-04-18T22:04:52.773Z,100.00
2023-04-18T22:07:58.543Z,100.00
2023-04-18T22:11:01.764Z,100.00
2023-04-18T22:14:04.552Z,100.00
2023-04-18T22:17:07.185Z,100.00
2023-04-18T22:20:10.982Z,100.00
2023-04-18T22:23:16.849Z,100.00
2023-04-18T22:26:21.472Z,100.00
2023-04-18T22:29:24.270Z,100.00
2023-04-18T22:32:27.341Z,100.00
2023-04-18T22:35:32.941Z,100.00
2023-04-18T22:38:35.727Z,100.00
2023-04-18T22:41:38.504Z,100.00
2023-04-18T22:44:41.202Z,100.00
2023-04-18T22:47:46.852Z,100.00
2023-04-18T22:50:50.120Z,100.00
2023-04-18T22:53:53.045Z,100.00
2023-04-18T22:56:56.082Z,100.00
2023-04-18T22:59:58.845Z,100.00
2023-04-18T23:03:01.726Z,100.00
2023-04-18T23:06:07.569Z,100.00
2023-04-18T23:09:10.194Z,100.00
2023-04-18T23:12:14.785Z,100.00
2023-04-18T23:15:17.774Z,100.00
2023-04-18T23:18:20.739Z,100.00
2023-04-18T23:21:23.621Z,100.00
2023-04-18T23:24:26.373Z,100.00
2023-04-18T23:27:29.099Z,100.00
2023-04-18T23:30:31.818Z,100.00
2023-04-18T23:33:34.980Z,100.00
2023-04-18T23:36:37.776Z,100.00
2023-04-18T23:39:40.909Z,100.00
2023-04-18T23:42:44.102Z,100.00
2023-04-18T23:45:46.939Z,100.00
2023-04-18T23:48:49.699Z,100.00
2023-04-18T23:51:52.356Z,100.00
2023-04-18T23:54:55.643Z,100.00
2023-04-18T23:57:58.675Z,100.00
